Time;durP1;ratioP1;P1;durP2;ratioP2;P2;SDS_P1;SDS_P2;PMS_P1;PMS_P2;Temp;Humidity;BMP_temperature;BMP_pressure;BME280_temperature;BME280_humidity;BME280_pressure;Samples;Min_cycle;Max_cycle;Signal;HPM_P1;HPM_P2
2022/06/14 00:01:05;;;;;;;4.95;3.15;;;21.50;99.90;;;;;;5001996;28;20037;-48
2022/06/14 00:03:37;;;;;;;4.10;2.70;;;21.50;99.90;;;;;;5052604;28;20025;-48
2022/06/14 00:06:13;;;;;;;3.85;3.20;;;21.50;99.90;;;;;;5018791;28;20033;-47
2022/06/14 00:08:39;;;;;;;4.57;2.50;;;21.50;99.90;;;;;;5052482;28;20041;-46
2022/06/14 00:11:08;;;;;;;3.40;2.70;;;21.50;99.90;;;;;;5052506;28;20029;-47
2022/06/14 00:13:34;;;;;;;3.90;2.22;;;21.60;99.90;;;;;;5052724;28;20036;-47
2022/06/14 00:16:00;;;;;;;2.38;2.15;;;21.60;99.90;;;;;;5051963;28;20025;-48
2022/06/14 00:18:25;;;;;;;3.67;2.28;;;21.60;99.90;;;;;;5002220;28;20055;-47
2022/06/14 00:20:52;;;;;;;6.68;2.17;;;21.60;99.90;;;;;;5002839;28;20029;-48
2022/06/14 00:23:19;;;;;;;2.63;2.13;;;21.60;99.90;;;;;;5051813;28;20059;-47
2022/06/14 00:25:51;;;;;;;5.38;2.42;;;21.60;99.90;;;;;;5018561;28;20370;-47
2022/06/14 00:28:17;;;;;;;4.75;2.80;;;21.60;99.90;;;;;;5053031;28;20102;-46
2022/06/14 00:30:46;;;;;;;5.70;3.50;;;21.60;99.90;;;;;;5001441;28;20047;-48
2022/06/14 00:33:12;;;;;;;6.00;5.10;;;21.60;99.90;;;;;;5052009;28;20036;-46
2022/06/14 00:35:38;;;;;;;6.88;4.40;;;21.50;99.90;;;;;;5052224;28;20029;-47
2022/06/14 00:38:04;;;;;;;6.32;4.35;;;21.50;99.90;;;;;;5052032;28;20104;-48
2022/06/14 00:40:33;;;;;;;4.40;4.00;;;21.50;99.90;;;;;;5052949;28;20035;-48
2022/06/14 00:43:02;;;;;;;4.40;4.00;;;21.50;99.90;;;;;;5052091;28;20527;-47
2022/06/14 00:45:28;;;;;;;5.88;3.20;;;21.50;99.90;;;;;;5050881;28;20036;-46
2022/06/14 00:48:18;;;;;;;3.75;2.70;;;21.40;99.90;;;;;;5018104;28;20508;-48
2022/06/14 00:51:13;;;;;;;15.15;5.68;;;21.40;99.90;;;;;;5050198;28;20072;-47
2022/06/14 00:54:13;;;;;;;8.10;5.40;;;21.50;99.90;;;;;;5016438;28;20041;-47
2022/06/14 00:56:54;;;;;;;4.68;3.75;;;21.50;99.90;;;;;;5051684;28;20033;-47
2022/06/14 00:59:34;;;;;;;2.90;2.60;;;21.40;99.90;;;;;;5052500;28;20117;-47
2022/06/14 01:02:20;;;;;;;3.22;2.30;;;21.40;99.90;;;;;;5051612;28;20039;-46
2022/06/14 01:04:47;;;;;;;3.45;2.67;;;21.30;99.90;;;;;;5050680;28;20029;-47
2022/06/14 01:07:15;;;;;;;6.25;2.60;;;21.30;99.90;;;;;;5034495;28;20037;-48
2022/06/14 01:09:49;;;;;;;3.50;2.55;;;21.30;99.90;;;;;;5052436;28;20025;-46
2022/06/14 01:12:18;;;;;;;4.03;2.70;;;21.20;99.90;;;;;;5035260;28;20049;-48
2022/06/14 01:15:03;;;;;;;6.32;2.90;;;21.20;99.90;;;;;;5051818;28;20029;-46
2022/06/14 01:17:33;;;;;;;4.43;3.30;;;21.20;99.90;;;;;;5044220;28;20108;-47
2022/06/14 01:19:59;;;;;;;3.38;2.97;;;21.20;99.90;;;;;;5037376;28;20100;-47
2022/06/14 01:22:28;;;;;;;5.28;3.28;;;21.20;99.90;;;;;;5035975;28;20447;-46
2022/06/14 01:24:54;;;;;;;7.78;2.67;;;21.20;99.90;;;;;;5013030;28;20029;-47
2022/06/14 01:27:22;;;;;;;3.83;2.78;;;21.20;99.90;;;;;;4991262;28;20076;-47
2022/06/14 01:29:56;;;;;;;3.55;2.53;;;21.10;99.90;;;;;;5038344;28;20088;-46
2022/06/14 01:32:24;;;;;;;3.97;2.28;;;21.20;99.90;;;;;;4985694;28;20041;-48
2022/06/14 01:34:54;;;;;;;4.10;2.50;;;21.10;99.90;;;;;;5036873;28;20108;-47
2022/06/14 01:37:21;;;;;;;4.78;2.75;;;21.10;99.90;;;;;;5038839;28;20121;-47
2022/06/14 01:39:48;;;;;;;5.88;2.90;;;21.10;99.90;;;;;;5039855;28;20064;-48
2022/06/14 01:42:13;;;;;;;5.85;2.30;;;21.10;99.90;;;;;;5039061;28;20079;-48
2022/06/14 01:45:02;;;;;;;3.50;2.55;;;21.00;99.90;;;;;;5037128;28;20025;-47
2022/06/14 01:47:51;;;;;;;3.45;2.63;;;21.10;99.90;;;;;;5036548;28;20037;-47
2022/06/14 01:53:33;;;;;;;4.00;2.45;;;21.10;99.90;;;;;;5036180;28;20044;-48
2022/06/14 01:56:10;;;;;;;6.45;2.60;;;21.00;99.90;;;;;;5037096;28;20032;-46
2022/06/14 01:58:48;;;;;;;4.50;2.10;;;21.10;99.90;;;;;;5037085;28;20108;-47
2022/06/14 02:01:32;;;;;;;4.38;2.33;;;21.10;99.90;;;;;;5036268;28;20040;-47
2022/06/14 02:07:21;;;;;;;3.20;2.20;;;21.00;99.90;;;;;;4992718;28;20057;-47
2022/06/14 02:10:04;;;;;;;2.75;2.22;;;21.00;99.90;;;;;;4994348;28;20030;-46
2022/06/14 02:12:54;;;;;;;3.35;2.33;;;21.00;99.90;;;;;;4992371;28;20034;-47
2022/06/14 02:15:33;;;;;;;5.35;2.28;;;21.00;99.90;;;;;;4992434;28;20053;-46
2022/06/14 02:18:25;;;;;;;3.38;2.40;;;21.00;99.90;;;;;;4961423;28;20050;-47
2022/06/14 02:21:12;;;;;;;2.90;2.20;;;20.90;99.90;;;;;;5012430;28;20030;-47
2022/06/14 02:23:42;;;;;;;5.57;2.40;;;21.00;99.90;;;;;;5011774;28;20041;-47
2022/06/14 02:26:15;;;;;;;4.65;1.80;;;20.90;99.90;;;;;;5011605;28;20069;-47
2022/06/14 02:28:51;;;;;;;2.28;1.98;;;20.80;99.90;;;;;;5012602;28;20037;-48
2022/06/14 02:31:23;;;;;;;2.60;1.75;;;20.90;99.90;;;;;;5013548;28;20101;-47
2022/06/14 02:33:51;;;;;;;;;;;20.90;99.90;;;;;;5012430;28;20029;-46
2022/06/14 02:37:09;;;;;;;2.75;1.83;;;20.90;99.90;;;;;;5013370;28;19910;-47
2022/06/14 02:39:58;;;;;;;2.28;1.98;;;20.90;99.90;;;;;;4950386;28;20095;-48
2022/06/14 02:42:33;;;;;;;2.78;2.03;;;20.90;99.90;;;;;;4955234;28;20187;-46
2022/06/14 02:45:13;;;;;;;4.72;1.90;;;20.90;99.90;;;;;;4956026;28;20530;-48
2022/06/14 02:47:54;;;;;;;3.42;1.73;;;20.90;99.90;;;;;;4954045;28;20083;-46
2022/06/14 02:50:37;;;;;;;3.50;1.80;;;20.90;99.90;;;;;;4955141;28;20031;-48
2022/06/14 02:53:15;;;;;;;3.63;1.88;;;20.90;99.90;;;;;;4953391;28;20274;-47
2022/06/14 02:55:54;;;;;;;6.70;1.95;;;20.80;99.90;;;;;;4936334;29;20035;-48
2022/06/14 02:58:31;;;;;;;5.50;2.20;;;20.80;99.90;;;;;;4953335;28;20037;-47
2022/06/14 03:01:12;;;;;;;3.03;1.98;;;20.80;99.90;;;;;;4953772;28;20027;-46
2022/06/14 03:03:45;;;;;;;3.80;1.85;;;20.70;99.90;;;;;;4953642;28;20104;-47
2022/06/14 03:06:23;;;;;;;3.90;2.13;;;20.70;99.90;;;;;;4955381;28;20053;-46
2022/06/14 03:08:52;;;;;;;2.90;1.70;;;20.60;99.90;;;;;;4953654;28;20424;-47
2022/06/14 03:11:29;;;;;;;3.20;2.15;;;20.60;99.90;;;;;;4954081;28;20034;-47
2022/06/14 03:14:01;;;;;;;2.90;1.70;;;20.60;99.90;;;;;;4962707;28;20085;-47
2022/06/14 03:16:46;;;;;;;;;;;20.60;99.90;;;;;;4980745;28;20049;-47
2022/06/14 03:19:17;;;;;;;3.65;1.70;;;20.60;99.90;;;;;;5023048;28;20012;-47
2022/06/14 03:21:50;;;;;;;2.65;1.90;;;20.50;99.90;;;;;;5014546;28;20037;-47
2022/06/14 03:24:32;;;;;;;3.90;1.70;;;20.50;99.90;;;;;;5025437;28;20083;-48
2022/06/14 03:27:18;;;;;;;2.10;1.50;;;20.40;99.90;;;;;;5018750;28;20691;-46
2022/06/14 03:29:55;;;;;;;4.32;2.30;;;20.50;99.90;;;;;;4988556;28;20032;-47
2022/06/14 03:32:33;;;;;;;2.83;2.35;;;20.40;99.90;;;;;;5021539;28;20084;-46
2022/06/14 03:35:19;;;;;;;6.40;1.85;;;20.40;99.90;;;;;;5014593;28;20073;-48
2022/06/14 03:37:44;;;;;;;2.83;2.30;;;20.40;99.90;;;;;;5012694;28;20060;-47
2022/06/14 03:40:15;;;;;;;5.63;2.25;;;20.30;99.90;;;;;;4983458;28;20033;-47
2022/06/14 03:42:41;;;;;;;5.18;1.80;;;20.30;99.90;;;;;;5014674;28;20030;-47
2022/06/14 03:45:12;;;;;;;3.90;2.08;;;20.40;99.90;;;;;;4983250;28;20494;-47
2022/06/14 03:47:38;;;;;;;2.65;1.73;;;20.30;99.90;;;;;;5036127;28;20047;-47
2022/06/14 03:50:09;;;;;;;2.50;1.60;;;20.40;99.90;;;;;;4998495;28;20033;-48
2022/06/14 03:52:38;;;;;;;;;;;20.40;99.90;;;;;;5034911;28;20053;-47
2022/06/14 03:55:23;;;;;;;4.18;2.00;;;20.30;99.90;;;;;;5036383;28;19913;-48
2022/06/14 03:58:00;;;;;;;4.63;1.50;;;20.30;99.90;;;;;;4992086;28;20060;-46
2022/06/14 04:00:46;;;;;;;3.15;1.90;;;20.30;99.90;;;;;;5035208;28;20173;-47
2022/06/14 04:03:14;;;;;;;4.97;2.28;;;20.20;99.90;;;;;;5036894;28;20033;-47
2022/06/14 04:06:06;;;;;;;4.82;1.70;;;20.20;99.90;;;;;;5035772;28;20037;-47
2022/06/14 04:08:35;;;;;;;;;;;20.20;99.90;;;;;;5035218;28;20041;-48
2022/06/14 04:11:22;;;;;;;2.47;1.92;;;20.20;99.90;;;;;;5039292;28;20404;-47
2022/06/14 04:14:10;;;;;;;2.40;1.67;;;20.30;99.90;;;;;;5035876;28;20013;-47
2022/06/14 04:17:12;;;;;;;1.95;1.60;;;20.30;99.90;;;;;;5032377;28;20028;-47
2022/06/14 04:19:55;;;;;;;3.53;1.63;;;20.40;99.90;;;;;;5034204;28;20026;-48
2022/06/14 04:22:23;;;;;;;;;;;20.30;99.90;;;;;;5033637;28;20025;-48
2022/06/14 04:24:59;;;;;;;5.88;2.22;;;20.40;99.90;;;;;;5036614;28;19959;-47
2022/06/14 04:27:41;;;;;;;4.20;1.88;;;20.30;99.90;;;;;;5000636;28;20057;-47
2022/06/14 04:30:13;;;;;;;1.92;1.50;;;20.30;99.90;;;;;;5036120;28;20049;-47
2022/06/14 04:32:57;;;;;;;3.72;1.65;;;20.30;99.90;;;;;;5033810;28;20076;-47
2022/06/14 04:35:42;;;;;;;4.38;1.85;;;20.40;99.90;;;;;;5035082;28;20041;-46
2022/06/14 04:38:14;;;;;;;2.35;1.50;;;20.30;99.90;;;;;;5035491;28;20037;-48
2022/06/14 04:40:51;;;;;;;2.88;1.65;;;20.30;99.90;;;;;;5034723;28;20087;-47
2022/06/14 04:43:29;;;;;;;3.20;1.45;;;20.30;99.90;;;;;;5035553;28;20496;-46
2022/06/14 04:46:02;;;;;;;2.25;1.90;;;20.20;99.90;;;;;;5032396;28;20021;-47
2022/06/14 04:48:49;;;;;;;3.33;1.70;;;20.20;99.90;;;;;;5035635;28;20037;-47
2022/06/14 04:51:41;;;;;;;3.30;1.45;;;20.20;99.90;;;;;;5036244;28;20029;-47
2022/06/14 04:54:22;;;;;;;2.13;1.30;;;20.20;99.90;;;;;;4950769;28;20133;-47
2022/06/14 04:56:57;;;;;;;3.15;1.42;;;20.20;99.90;;;;;;4936078;29;20142;-48
2022/06/14 04:59:35;;;;;;;2.28;1.35;;;20.10;99.90;;;;;;4954458;28;20050;-47
2022/06/14 05:02:09;;;;;;;2.95;1.30;;;20.20;99.90;;;;;;4955284;28;20066;-48
2022/06/14 05:04:45;;;;;;;3.08;1.60;;;20.20;99.90;;;;;;4950772;28;20035;-47
2022/06/14 05:07:27;;;;;;;2.67;1.58;;;20.30;99.90;;;;;;4955290;28;20803;-46
2022/06/14 05:09:56;;;;;;;1.98;1.30;;;20.30;99.90;;;;;;4953001;28;20046;-48
2022/06/14 05:12:29;;;;;;;1.63;1.30;;;20.40;99.90;;;;;;4952929;28;20051;-47
2022/06/14 05:15:21;;;;;;;2.13;1.42;;;20.30;99.90;;;;;;4952870;28;20059;-46
2022/06/14 05:17:57;;;;;;;2.05;1.40;;;20.40;99.90;;;;;;4953155;28;20122;-47
2022/06/14 05:20:23;;;;;;;4.25;1.70;;;20.40;99.90;;;;;;4951454;29;20064;-47
2022/06/14 05:23:01;;;;;;;3.58;1.15;;;20.40;99.90;;;;;;4951072;28;20035;-46
2022/06/14 05:25:50;;;;;;;1.73;1.33;;;20.30;99.90;;;;;;4949953;28;20063;-46
2022/06/14 05:28:25;;;;;;;2.83;1.27;;;20.30;99.90;;;;;;4951148;28;20050;-48
2022/06/14 05:30:58;;;;;;;3.70;1.77;;;20.20;99.90;;;;;;4980139;28;20042;-46
2022/06/14 05:33:59;;;;;;;2.42;1.25;;;20.20;99.90;;;;;;5031685;28;20040;-46
2022/06/14 05:36:32;;;;;;;2.25;1.55;;;20.20;99.90;;;;;;5031779;28;20472;-48
2022/06/14 05:39:01;;;;;;;2.53;1.50;;;20.20;99.90;;;;;;5031930;28;20362;-47
2022/06/14 05:41:40;;;;;;;3.30;1.60;;;20.20;99.90;;;;;;5029465;28;20036;-46
2022/06/14 05:44:20;;;;;;;1.65;1.20;;;20.40;99.90;;;;;;5031841;28;20104;-46
2022/06/14 05:46:50;;;;;;;2.15;1.35;;;20.60;99.90;;;;;;5032596;28;20083;-48
2022/06/14 05:49:22;;;;;;;6.10;1.35;;;20.90;99.90;;;;;;5031423;28;20036;-47
2022/06/14 05:52:00;;;;;;;2.63;1.30;;;21.00;99.90;;;;;;5021914;28;20022;-46
2022/06/14 05:54:29;;;;;;;3.85;1.30;;;21.10;99.90;;;;;;5016294;28;20076;-47
2022/06/14 05:57:00;;;;;;;3.72;1.40;;;21.20;99.90;;;;;;5014291;28;20048;-47
2022/06/14 05:59:34;;;;;;;2.42;1.15;;;21.30;99.90;;;;;;5013256;28;20073;-48
2022/06/14 06:02:31;;;;;;;2.50;1.30;;;21.60;99.90;;;;;;5030173;28;20038;-48
2022/06/14 06:05:20;;;;;;;2.78;1.70;;;21.40;99.90;;;;;;5034348;28;20060;-48
2022/06/14 06:08:06;;;;;;;1.77;1.20;;;21.50;99.90;;;;;;4963709;28;20085;-46
2022/06/14 06:10:36;;;;;;;1.90;1.13;;;21.50;99.90;;;;;;4949655;28;20051;-47
2022/06/14 06:13:10;;;;;;;3.70;1.30;;;21.30;99.90;;;;;;4961378;28;20035;-46
2022/06/14 06:15:38;;;;;;;3.03;1.42;;;21.30;99.90;;;;;;4959656;28;20566;-46
2022/06/14 06:18:16;;;;;;;2.75;1.20;;;21.20;99.90;;;;;;4959928;28;20585;-46
2022/06/14 06:20:52;;;;;;;3.78;1.25;;;21.20;99.90;;;;;;4958233;28;20038;-47
2022/06/14 06:23:32;;;;;;;3.83;1.35;;;21.20;99.90;;;;;;4955415;28;20114;-46
2022/06/14 06:25:58;;;;;;;1.40;1.23;;;21.30;99.90;;;;;;4957476;28;20076;-47
2022/06/14 06:28:34;;;;;;;2.30;1.10;;;21.40;99.90;;;;;;4948617;28;20051;-48
2022/06/14 06:31:20;;;;;;;2.90;1.17;;;21.40;99.90;;;;;;4964338;28;20042;-47
2022/06/14 06:33:52;;;;;;;1.77;1.27;;;21.50;99.90;;;;;;4961513;28;20035;-45
2022/06/14 06:36:23;;;;;;;2.80;1.10;;;21.40;99.90;;;;;;4936181;29;20039;-47
2022/06/14 06:39:10;;;;;;;2.35;1.15;;;21.40;99.90;;;;;;4959879;28;20546;-46
2022/06/14 06:41:53;;;;;;;4.20;1.40;;;21.50;99.90;;;;;;4966791;28;20483;-46
2022/06/14 06:44:34;;;;;;;4.38;1.00;;;21.50;99.90;;;;;;4983539;28;20050;-43
2022/06/14 06:47:20;;;;;;;2.50;1.45;;;21.60;99.90;;;;;;5048208;28;20103;-46
2022/06/14 06:50:18;;;;;;;2.90;1.30;;;21.60;99.90;;;;;;5042747;28;20113;-46
2022/06/14 06:53:01;;;;;;;4.57;1.60;;;21.80;99.90;;;;;;5028248;28;20050;-46
2022/06/14 06:55:55;;;;;;;2.60;1.35;;;21.70;99.90;;;;;;5042370;28;20036;-46
2022/06/14 06:58:37;;;;;;;2.63;1.45;;;21.80;99.90;;;;;;5042108;28;20087;-46
2022/06/14 07:01:12;;;;;;;2.25;1.17;;;21.90;99.90;;;;;;5037573;28;20033;-47
2022/06/14 07:03:41;;;;;;;4.85;1.42;;;22.00;99.90;;;;;;5026568;28;20485;-46
2022/06/14 07:06:18;;;;;;;3.35;1.10;;;22.00;99.90;;;;;;5050532;28;20361;-47
2022/06/14 07:08:53;;;;;;;5.82;1.88;;;22.00;99.90;;;;;;4999425;28;20390;-47
2022/06/14 07:11:23;;;;;;;2.80;1.35;;;22.20;99.90;;;;;;5036192;28;20444;-46
2022/06/14 07:14:25;;;;;;;2.10;1.30;;;22.20;99.90;;;;;;5035458;28;20026;-46
2022/06/14 07:17:14;;;;;;;2.65;1.38;;;22.30;99.90;;;;;;5043638;28;20037;-47
2022/06/14 07:19:53;;;;;;;3.13;1.50;;;22.40;99.90;;;;;;5034654;28;20385;-47
2022/06/14 07:22:27;;;;;;;4.10;2.08;;;22.60;99.90;;;;;;5038619;28;20433;-46
2022/06/14 07:24:59;;;;;;;4.20;1.80;;;22.60;99.90;;;;;;5037508;28;20029;-47
2022/06/14 07:27:31;;;;;;;2.85;1.70;;;22.40;99.90;;;;;;5050276;28;20365;-46
2022/06/14 07:30:00;;;;;;;2.33;1.50;;;22.50;99.90;;;;;;5043421;28;20031;-46
2022/06/14 07:32:36;;;;;;;3.03;1.50;;;22.50;99.90;;;;;;5042065;28;20057;-46
2022/06/14 07:35:02;;;;;;;5.00;1.67;;;22.40;99.90;;;;;;5036560;28;20067;-46
2022/06/14 07:37:45;;;;;;;3.85;1.70;;;22.30;99.90;;;;;;5040596;28;20037;-47
2022/06/14 07:40:23;;;;;;;3.80;1.90;;;22.40;99.90;;;;;;5038320;28;20462;-46
2022/06/14 07:42:57;;;;;;;2.42;1.55;;;22.60;99.90;;;;;;4990484;28;20033;-46
2022/06/14 07:45:38;;;;;;;3.15;1.40;;;22.50;99.90;;;;;;5039950;28;20036;-46
2022/06/14 07:48:18;;;;;;;4.18;1.50;;;22.20;99.90;;;;;;5042851;28;20041;-46
2022/06/14 07:50:52;;;;;;;1.90;1.58;;;22.10;99.90;;;;;;5040394;28;20025;-46
2022/06/14 07:53:39;;;;;;;6.25;1.50;;;22.40;99.90;;;;;;5039608;28;20093;-46
2022/06/14 07:56:29;;;;;;;3.42;1.50;;;22.60;99.90;;;;;;5032663;28;20382;-45
2022/06/14 07:59:15;;;;;;;3.05;1.65;;;22.70;99.90;;;;;;5040131;28;20056;-46
2022/06/14 08:01:50;;;;;;;7.85;1.95;;;22.60;99.90;;;;;;5031977;28;20026;-46
2022/06/14 08:04:18;;;;;;;2.17;1.40;;;22.50;99.90;;;;;;4996149;28;20034;-44
2022/06/14 08:07:00;;;;;;;3.95;1.52;;;22.30;99.90;;;;;;5039357;28;20060;-45
2022/06/14 08:09:54;;;;;;;3.28;1.35;;;22.50;99.90;;;;;;5036864;28;20415;-47
2022/06/14 08:12:48;;;;;;;2.83;1.92;;;22.80;99.90;;;;;;5032180;28;20041;-48
2022/06/14 08:15:20;;;;;;;2.63;1.80;;;23.20;99.90;;;;;;5033805;28;20029;-47
2022/06/14 08:18:00;;;;;;;;;;;23.50;99.90;;;;;;5032926;28;20045;-50
2022/06/14 08:20:37;;;;;;;3.45;1.40;;;23.60;99.90;;;;;;5033698;28;19975;-48
2022/06/14 08:23:13;;;;;;;2.78;1.58;;;23.40;99.90;;;;;;5031191;28;20388;-45
2022/06/14 08:25:44;;;;;;;3.22;1.38;;;23.90;99.90;;;;;;5031652;28;20108;-46
2022/06/14 08:28:15;;;;;;;6.13;1.70;;;24.10;99.90;;;;;;5033292;28;20029;-46
2022/06/14 08:30:55;;;;;;;3.08;1.50;;;23.90;99.90;;;;;;5032073;28;20017;-45
2022/06/14 08:33:44;;;;;;;2.58;1.40;;;24.20;99.90;;;;;;5033221;28;20484;-47
2022/06/14 08:36:24;;;;;;;1.98;1.45;;;24.30;99.90;;;;;;5032264;28;20105;-46
2022/06/14 08:38:55;;;;;;;4.13;1.90;;;24.60;99.90;;;;;;5032526;28;20097;-50
2022/06/14 08:41:47;;;;;;;3.22;1.70;;;24.40;99.90;;;;;;5033348;28;20108;-47
2022/06/14 08:44:19;;;;;;;3.50;1.70;;;;;;;;;;5032606;28;20037;-47
2022/06/14 08:47:00;;;;;;;3.28;1.65;;;24.80;99.90;;;;;;5032271;28;20025;-50
2022/06/14 08:49:51;;;;;;;3.27;1.50;;;24.80;99.90;;;;;;5031989;28;20029;-49
2022/06/14 08:52:23;;;;;;;3.30;1.60;;;24.90;99.90;;;;;;5030696;28;20029;-48
2022/06/14 08:54:49;;;;;;;;;;;;;;;;;;5033173;28;20068;-49
2022/06/14 08:57:43;;;;;;;2.63;1.50;;;25.80;99.90;;;;;;5030848;28;19909;-46
2022/06/14 09:00:24;;;;;;;3.15;1.60;;;25.10;99.90;;;;;;5031094;28;20026;-49
2022/06/14 09:02:50;;;;;;;2.20;1.50;;;;;;;;;;5032806;28;20449;-49
2022/06/14 09:05:31;;;;;;;3.72;1.73;;;;;;;;;;5032808;28;20021;-46
2022/06/14 09:08:18;;;;;;;6.10;1.43;;;;;;;;;;5030290;28;20055;-49
2022/06/14 09:10:51;;;;;;;4.95;1.80;;;;;;;;;;4977051;28;20990;-49
2022/06/14 09:13:50;;;;;;;6.25;1.75;;;26.10;99.90;;;;;;5027390;28;20354;-46
2022/06/14 09:16:15;;;;;;;2.55;1.50;;;26.20;99.90;;;;;;5032589;28;20519;-50
2022/06/14 09:18:56;;;;;;;5.00;2.10;;;26.30;99.90;;;;;;5032553;28;20050;-44
2022/06/14 09:21:30;;;;;;;3.17;1.77;;;26.10;99.90;;;;;;5032474;28;20025;-47
2022/06/14 09:24:02;;;;;;;4.15;1.33;;;26.10;99.90;;;;;;5032770;28;20354;-52
2022/06/14 09:26:27;;;;;;;3.83;1.48;;;25.90;99.90;;;;;;5029516;28;20029;-49
2022/06/14 09:29:24;;;;;;;8.90;1.55;;;26.10;99.90;;;;;;5033299;28;20030;-48
2022/06/14 09:32:15;;;;;;;2.55;1.30;;;26.30;99.90;;;;;;5032817;28;20035;-47
2022/06/14 09:34:44;;;;;;;2.17;1.50;;;26.20;99.90;;;;;;4995165;28;20037;-47
2022/06/14 09:37:35;;;;;;;3.97;1.70;;;26.10;99.90;;;;;;4982276;28;20420;-46
2022/06/14 09:40:30;;;;;;;3.97;1.80;;;26.00;99.90;;;;;;5032970;28;20029;-46
2022/06/14 09:43:11;;;;;;;7.90;1.98;;;;;;;;;;5030038;28;20037;-46
2022/06/14 09:46:14;;;;;;;2.35;1.48;;;26.90;99.90;;;;;;5033503;28;20053;-46
2022/06/14 09:49:10;;;;;;;3.90;1.52;;;27.10;99.90;;;;;;5033181;28;20034;-46
2022/06/14 09:52:32;;;;;;;4.40;2.10;;;27.10;99.90;;;;;;5036677;28;20039;-46
2022/06/14 09:55:22;;;;;;;2.45;1.58;;;26.90;99.70;;;;;;4956713;29;20040;-45
2022/06/14 09:57:51;;;;;;;4.45;1.30;;;26.90;99.90;;;;;;4956380;29;20031;-47
2022/06/14 10:00:37;;;;;;;4.10;1.40;;;27.20;99.30;;;;;;4956393;28;20036;-46
2022/06/14 10:03:30;;;;;;;5.75;1.83;;;27.60;99.20;;;;;;4954711;28;20135;-47
2022/06/14 10:06:18;;;;;;;4.03;1.33;;;27.40;98.50;;;;;;4975760;28;20039;-47
2022/06/14 10:08:59;;;;;;;4.20;1.50;;;27.30;97.60;;;;;;4975603;28;20526;-46
2022/06/14 10:11:25;;;;;;;2.08;1.35;;;;;;;;;;4975644;28;20041;-46
2022/06/14 10:14:05;;;;;;;4.72;1.50;;;27.50;95.10;;;;;;4975611;28;20473;-46
2022/06/14 10:16:46;;;;;;;3.83;1.50;;;27.50;96.20;;;;;;4975167;28;20398;-45
2022/06/14 10:19:33;;;;;;;2.78;1.40;;;27.90;96.30;;;;;;4975394;28;20395;-47
2022/06/14 10:22:20;;;;;;;7.32;4.20;;;27.80;99.60;;;;;;4975409;28;20038;-46
2022/06/14 10:25:29;;;;;;;5.18;2.17;;;28.00;95.40;;;;;;4981130;28;20498;-47
2022/06/14 10:28:25;;;;;;;5.43;1.60;;;27.70;99.90;;;;;;4955784;29;20067;-46
2022/06/14 10:31:18;;;;;;;2.95;1.70;;;28.00;99.60;;;;;;4955999;29;20031;-46
2022/06/14 10:33:59;;;;;;;2.88;1.63;;;28.30;96.30;;;;;;4960044;28;20074;-46
2022/06/14 10:36:25;;;;;;;3.38;1.88;;;;;;;;;;4973758;28;20030;-47
2022/06/14 10:39:18;;;;;;;4.32;1.98;;;28.50;99.90;;;;;;4975077;28;20023;-47
2022/06/14 10:41:55;;;;;;;3.28;2.08;;;;;;;;;;4974019;28;20414;-48
2022/06/14 10:44:56;;;;;;;4.72;2.15;;;29.20;98.90;;;;;;4973750;28;20034;-46
2022/06/14 10:47:51;;;;;;;4.73;1.50;;;30.00;95.40;;;;;;4880738;29;20049;-46
2022/06/14 10:50:26;;;;;;;3.55;1.70;;;;;;;;;;4879865;29;20033;-46
2022/06/14 10:53:01;;;;;;;3.10;1.70;;;;;;;;;;4879911;29;20041;-46
2022/06/14 10:55:30;;;;;;;6.40;1.70;;;29.30;99.90;;;;;;4879623;29;20481;-46
2022/06/14 10:57:58;;;;;;;4.00;1.50;;;29.30;99.90;;;;;;4879676;29;20489;-46
2022/06/14 11:00:33;;;;;;;2.63;1.48;;;;;;;;;;4879800;29;20103;-48
2022/06/14 11:03:18;;;;;;;4.07;1.70;;;;;;;;;;4879634;29;20043;-46
2022/06/14 11:05:56;;;;;;;5.60;1.63;;;;;;;;;;4894126;29;20100;-46
2022/06/14 11:08:58;;;;;;;3.10;1.40;;;30.40;99.90;;;;;;4915070;29;20051;-48
2022/06/14 11:11:56;;;;;;;6.00;1.75;;;30.40;91.00;;;;;;4920004;29;20067;-46
2022/06/14 11:14:55;;;;;;;3.00;1.45;;;30.20;90.40;;;;;;4935500;29;20484;-47
2022/06/14 11:17:30;;;;;;;3.40;1.30;;;;;;;;;;4935680;29;20488;-47
2022/06/14 11:20:10;;;;;;;1.23;1.08;;;29.40;92.80;;;;;;4936015;29;20507;-45
2022/06/14 11:22:40;;;;;;;4.67;1.40;;;;;;;;;;4935417;29;20028;-46
2022/06/14 11:25:30;;;;;;;4.45;1.60;;;29.10;89.50;;;;;;5018027;28;20424;-46
2022/06/14 11:28:08;;;;;;;2.25;1.38;;;29.30;90.50;;;;;;5016810;28;20388;-45
2022/06/14 11:30:40;;;;;;;1.58;1.30;;;29.70;91.30;;;;;;5034841;28;20030;-46
2022/06/14 11:33:10;;;;;;;;;;;29.90;90.10;;;;;;5035659;28;20035;-45
2022/06/14 11:36:06;;;;;;;8.73;1.63;;;30.10;87.90;;;;;;5035225;28;19944;-47
2022/06/14 11:38:41;;;;;;;2.97;1.55;;;29.80;88.80;;;;;;5034733;28;20025;-45
2022/06/14 11:41:08;;;;;;;2.50;1.33;;;29.80;84.40;;;;;;5034577;28;20037;-46
2022/06/14 11:43:40;;;;;;;4.25;1.70;;;29.80;82.30;;;;;;5034636;28;20072;-46
2022/06/14 11:46:13;;;;;;;;;;;30.00;89.60;;;;;;5033665;28;20372;-46
2022/06/14 11:49:09;;;;;;;3.50;1.42;;;30.50;85.20;;;;;;5034676;28;19912;-46
2022/06/14 11:51:51;;;;;;;2.30;1.48;;;;;;;;;;5028719;28;20025;-46
2022/06/14 11:54:17;;;;;;;4.32;1.30;;;31.20;94.60;;;;;;5033431;28;20028;-43
2022/06/14 11:56:43;;;;;;;3.55;1.60;;;;;;;;;;4982764;28;20037;-47
2022/06/14 11:59:38;;;;;;;3.78;1.45;;;;;;;;;;5033903;28;20022;-48
2022/06/14 12:02:17;;;;;;;5.32;1.80;;;;;;;;;;5026987;28;20032;-48
2022/06/14 12:05:04;;;;;;;2.00;1.38;;;30.50;92.40;;;;;;5031209;28;20029;-47
2022/06/14 12:07:32;;;;;;;4.15;1.58;;;30.40;91.00;;;;;;5032249;28;20030;-48
2022/06/14 12:10:07;;;;;;;2.88;1.20;;;30.30;77.40;;;;;;5033981;28;20025;-47
2022/06/14 12:13:01;;;;;;;2.85;1.50;;;30.50;78.50;;;;;;5033343;28;20037;-47
2022/06/14 12:15:27;;;;;;;3.83;1.90;;;;;;;;;;5034030;28;20481;-47
2022/06/14 12:17:56;;;;;;;2.35;1.45;;;;;;;;;;5034141;28;20388;-47
2022/06/14 12:20:24;;;;;;;4.75;1.50;;;30.90;99.00;;;;;;5034269;28;20021;-46
2022/06/14 12:23:07;;;;;;;5.03;1.60;;;30.90;89.80;;;;;;5034312;28;20025;-47
2022/06/14 12:29:06;;;;;;;3.28;1.60;;;;;;;;;;5033969;28;20538;-48
2022/06/14 12:31:39;;;;;;;3.42;1.52;;;;;;;;;;4937640;29;20035;-48
2022/06/14 12:34:17;;;;;;;4.15;1.60;;;;;;;;;;4956240;28;20663;-47
2022/06/14 12:37:02;;;;;;;3.90;1.60;;;;;;;;;;4971600;28;20074;-48
2022/06/14 12:39:30;;;;;;;3.33;1.55;;;;;;;;;;4971249;28;20041;-49
2022/06/14 12:41:59;;;;;;;2.90;1.40;;;;;;;;;;4972023;28;20037;-46
2022/06/14 12:44:31;;;;;;;1.90;1.10;;;31.00;89.50;;;;;;4972550;28;20435;-46
2022/06/14 12:47:00;;;;;;;3.25;1.55;;;;;;;;;;4971565;28;20062;-43
2022/06/14 12:49:29;;;;;;;9.75;2.67;;;;;;;;;;4974198;28;20046;-44
2022/06/14 12:52:06;;;;;;;4.60;1.67;;;;;;;;;;4981264;28;20086;-50
2022/06/14 12:54:35;;;;;;;2.97;1.55;;;;;;;;;;4969966;28;20035;-49
2022/06/14 12:57:09;;;;;;;2.58;1.20;;;;;;;;;;4971013;28;20049;-50
2022/06/14 12:59:35;;;;;;;1.85;1.10;;;;;;;;;;4940619;28;20129;-51
2022/06/14 13:02:20;;;;;;;2.97;1.50;;;;;;;;;;4996406;28;20041;-50
2022/06/14 13:04:49;;;;;;;2.75;1.60;;;;;;;;;;5033401;28;20040;-49
2022/06/14 13:07:27;;;;;;;3.90;1.50;;;;;;;;;;5033893;28;20073;-49
2022/06/14 13:09:56;;;;;;;6.88;2.70;;;;;;;;;;5034230;28;20029;-47
2022/06/14 13:12:25;;;;;;;3.13;1.55;;;;;;;;;;4998829;28;20116;-48
2022/06/14 13:15:10;;;;;;;3.83;1.45;;;;;;;;;;5032453;28;20029;-51
2022/06/14 13:18:04;;;;;;;1.80;1.23;;;31.70;80.60;;;;;;5031848;28;20053;-50
2022/06/14 13:20:47;;;;;;;5.88;1.73;;;31.60;81.20;;;;;;4995920;28;20029;-51
2022/06/14 13:23:27;;;;;;;4.32;1.70;;;31.50;80.40;;;;;;5005847;28;20484;-51
2022/06/14 13:26:19;;;;;;;2.85;1.95;;;31.90;80.40;;;;;;5037251;28;20036;-51
2022/06/14 13:28:55;;;;;;;2.28;1.20;;;31.90;81.30;;;;;;5034728;28;20567;-51
2022/06/14 13:31:37;;;;;;;2.45;1.33;;;31.70;88.40;;;;;;5036625;28;20037;-49
2022/06/14 13:34:23;;;;;;;3.15;1.45;;;31.30;90.30;;;;;;5033753;28;20052;-49
2022/06/14 13:37:15;;;;;;;3.92;1.50;;;;;;;;;;5033547;28;20091;-52
2022/06/14 13:39:47;;;;;;;3.92;1.40;;;30.10;99.90;;;;;;4981529;28;20025;-50
2022/06/14 13:42:27;;;;;;;4.57;1.90;;;;;;;;;;5036128;28;20033;-62
2022/06/14 13:45:20;;;;;;;6.78;1.88;;;29.50;94.20;;;;;;5036606;28;20566;-49
2022/06/14 13:48:24;;;;;;;3.42;1.50;;;29.40;79.30;;;;;;5036730;28;20037;-50
2022/06/14 13:50:55;;;;;;;1.30;1.00;;;29.90;80.50;;;;;;4973888;28;20039;-49
2022/06/14 13:53:21;;;;;;;2.40;1.40;;;29.80;79.90;;;;;;4974539;28;20086;-49
2022/06/14 13:55:50;;;;;;;4.30;1.55;;;;;;;;;;4957804;28;20527;-49
2022/06/14 13:58:38;;;;;;;3.08;1.48;;;30.90;96.00;;;;;;4974415;28;20050;-49
2022/06/14 14:01:04;;;;;;;3.55;2.00;;;;;;;;;;4974163;28;20027;-49
2022/06/14 14:03:36;;;;;;;2.97;1.50;;;;;;;;;;4973722;28;20097;-49
2022/06/14 14:06:02;;;;;;;3.05;1.58;;;;;;;;;;4973972;28;20030;-49
2022/06/14 14:08:44;;;;;;;2.88;1.45;;;31.30;97.10;;;;;;4974140;28;20039;-49
2022/06/14 14:11:16;;;;;;;5.70;2.10;;;31.90;86.60;;;;;;4973943;28;20035;-49
2022/06/14 14:13:48;;;;;;;3.28;1.48;;;32.00;91.70;;;;;;4972239;28;20031;-49